sensor_id;sensor_type;location;lat;lon;timestamp;P1;durP1;ratioP1;P2;durP2;ratioP2
39958;SDS011;25639;53.634;9.880;2022-08-03T00:00:38;5.85;;;4.07;;
39958;SDS011;25639;53.634;9.880;2022-08-03T00:03:04;6.35;;;3.83;;
39958;SDS011;25639;53.634;9.880;2022-08-03T00:05:29;7.03;;;4.10;;
39958;SDS011;25639;53.634;9.880;2022-08-03T00:07:57;6.80;;;4.10;;
39958;SDS011;25639;53.634;9.880;2022-08-03T00:10:22;5.28;;;3.90;;
39958;SDS011;25639;53.634;9.880;2022-08-03T00:12:48;6.80;;;4.13;;
39958;SDS011;25639;53.634;9.880;2022-08-03T00:15:13;7.03;;;4.35;;
39958;SDS011;25639;53.634;9.880;2022-08-03T00:17:38;6.28;;;4.00;;
39958;SDS011;25639;53.634;9.880;2022-08-03T00:20:04;6.07;;;4.00;;
39958;SDS011;25639;53.634;9.880;2022-08-03T00:22:29;5.45;;;4.25;;
39958;SDS011;25639;53.634;9.880;2022-08-03T00:24:54;4.28;;;3.83;;
39958;SDS011;25639;53.634;9.880;2022-08-03T00:27:20;5.00;;;4.10;;
39958;SDS011;25639;53.634;9.880;2022-08-03T00:29:45;7.75;;;4.30;;
39958;SDS011;25639;53.634;9.880;2022-08-03T00:32:10;5.93;;;4.25;;
39958;SDS011;25639;53.634;9.880;2022-08-03T00:34:36;7.47;;;4.78;;
39958;SDS011;25639;53.634;9.880;2022-08-03T00:37:01;5.30;;;4.32;;
39958;SDS011;25639;53.634;9.880;2022-08-03T00:39:26;5.90;;;4.22;;
39958;SDS011;25639;53.634;9.880;2022-08-03T00:41:52;7.43;;;4.78;;
39958;SDS011;25639;53.634;9.880;2022-08-03T00:44:17;8.00;;;5.20;;
39958;SDS011;25639;53.634;9.880;2022-08-03T00:46:42;6.10;;;4.70;;
39958;SDS011;25639;53.634;9.880;2022-08-03T00:49:07;5.32;;;4.63;;
39958;SDS011;25639;53.634;9.880;2022-08-03T00:51:33;5.60;;;4.85;;
39958;SDS011;25639;53.634;9.880;2022-08-03T00:53:58;7.13;;;5.22;;
39958;SDS011;25639;53.634;9.880;2022-08-03T00:56:23;7.00;;;5.15;;
39958;SDS011;25639;53.634;9.880;2022-08-03T00:58:50;7.75;;;4.80;;
39958;SDS011;25639;53.634;9.880;2022-08-03T01:01:16;7.38;;;5.57;;
39958;SDS011;25639;53.634;9.880;2022-08-03T01:03:41;6.45;;;4.95;;
39958;SDS011;25639;53.634;9.880;2022-08-03T01:06:17;6.07;;;4.70;;
39958;SDS011;25639;53.634;9.880;2022-08-03T01:11:37;6.75;;;4.93;;
39958;SDS011;25639;53.634;9.880;2022-08-03T01:16:54;11.85;;;5.63;;
39958;SDS011;25639;53.634;9.880;2022-08-03T01:30:21;7.10;;;5.22;;
39958;SDS011;25639;53.634;9.880;2022-08-03T01:33:01;6.13;;;5.05;;
39958;SDS011;25639;53.634;9.880;2022-08-03T01:35:38;12.15;;;5.85;;
39958;SDS011;25639;53.634;9.880;2022-08-03T01:38:14;7.78;;;6.03;;
39958;SDS011;25639;53.634;9.880;2022-08-03T01:40:46;7.97;;;5.55;;
39958;SDS011;25639;53.634;9.880;2022-08-03T01:43:14;7.28;;;4.90;;
39958;SDS011;25639;53.634;9.880;2022-08-03T01:45:41;7.75;;;5.55;;
39958;SDS011;25639;53.634;9.880;2022-08-03T01:48:07;8.70;;;5.72;;
39958;SDS011;25639;53.634;9.880;2022-08-03T01:50:36;8.98;;;5.72;;
39958;SDS011;25639;53.634;9.880;2022-08-03T01:53:02;8.40;;;5.57;;
39958;SDS011;25639;53.634;9.880;2022-08-03T01:55:31;8.02;;;5.93;;
39958;SDS011;25639;53.634;9.880;2022-08-03T01:58:00;7.18;;;5.95;;
39958;SDS011;25639;53.634;9.880;2022-08-03T02:00:27;8.13;;;5.93;;
39958;SDS011;25639;53.634;9.880;2022-08-03T02:02:54;6.95;;;5.95;;
39958;SDS011;25639;53.634;9.880;2022-08-03T02:05:20;8.25;;;6.20;;
39958;SDS011;25639;53.634;9.880;2022-08-03T02:07:48;7.35;;;5.30;;
39958;SDS011;25639;53.634;9.880;2022-08-03T02:10:17;7.45;;;5.68;;
39958;SDS011;25639;53.634;9.880;2022-08-03T02:12:44;6.53;;;5.50;;
39958;SDS011;25639;53.634;9.880;2022-08-03T02:15:11;7.05;;;5.97;;
39958;SDS011;25639;53.634;9.880;2022-08-03T02:17:39;7.78;;;5.95;;
39958;SDS011;25639;53.634;9.880;2022-08-03T02:20:08;6.55;;;5.60;;
39958;SDS011;25639;53.634;9.880;2022-08-03T02:22:36;10.35;;;5.80;;
39958;SDS011;25639;53.634;9.880;2022-08-03T02:25:04;7.93;;;5.63;;
39958;SDS011;25639;53.634;9.880;2022-08-03T02:27:30;10.02;;;5.80;;
39958;SDS011;25639;53.634;9.880;2022-08-03T02:30:06;8.35;;;6.20;;
39958;SDS011;25639;53.634;9.880;2022-08-03T02:32:34;8.02;;;5.82;;
39958;SDS011;25639;53.634;9.880;2022-08-03T02:35:02;6.45;;;5.72;;
39958;SDS011;25639;53.634;9.880;2022-08-03T02:37:30;10.73;;;6.60;;
39958;SDS011;25639;53.634;9.880;2022-08-03T02:40:03;7.22;;;6.18;;
39958;SDS011;25639;53.634;9.880;2022-08-03T02:42:32;7.88;;;6.13;;
39958;SDS011;25639;53.634;9.880;2022-08-03T02:45:00;10.55;;;6.35;;
39958;SDS011;25639;53.634;9.880;2022-08-03T02:47:28;7.90;;;5.90;;
39958;SDS011;25639;53.634;9.880;2022-08-03T02:49:55;9.52;;;6.80;;
39958;SDS011;25639;53.634;9.880;2022-08-03T02:52:23;8.43;;;6.32;;
39958;SDS011;25639;53.634;9.880;2022-08-03T02:54:52;11.30;;;6.45;;
39958;SDS011;25639;53.634;9.880;2022-08-03T02:57:20;9.40;;;6.43;;
39958;SDS011;25639;53.634;9.880;2022-08-03T02:59:49;10.57;;;6.65;;
39958;SDS011;25639;53.634;9.880;2022-08-03T03:02:16;7.78;;;6.80;;
39958;SDS011;25639;53.634;9.880;2022-08-03T03:04:43;9.82;;;6.25;;
39958;SDS011;25639;53.634;9.880;2022-08-03T03:07:11;9.32;;;6.20;;
39958;SDS011;25639;53.634;9.880;2022-08-03T03:09:37;8.73;;;6.47;;
39958;SDS011;25639;53.634;9.880;2022-08-03T03:12:03;11.05;;;6.18;;
39958;SDS011;25639;53.634;9.880;2022-08-03T03:14:30;10.77;;;6.90;;
39958;SDS011;25639;53.634;9.880;2022-08-03T03:16:56;9.05;;;6.53;;
39958;SDS011;25639;53.634;9.880;2022-08-03T03:19:22;8.32;;;6.45;;
39958;SDS011;25639;53.634;9.880;2022-08-03T03:21:49;15.23;;;6.28;;
39958;SDS011;25639;53.634;9.880;2022-08-03T03:24:16;11.32;;;6.75;;
39958;SDS011;25639;53.634;9.880;2022-08-03T03:26:42;11.48;;;6.93;;
39958;SDS011;25639;53.634;9.880;2022-08-03T03:29:08;11.45;;;6.53;;
39958;SDS011;25639;53.634;9.880;2022-08-03T03:31:34;7.95;;;6.60;;
39958;SDS011;25639;53.634;9.880;2022-08-03T03:34:00;8.18;;;6.13;;
39958;SDS011;25639;53.634;9.880;2022-08-03T03:36:25;7.32;;;6.10;;
39958;SDS011;25639;53.634;9.880;2022-08-03T03:38:51;5.70;;;5.10;;
39958;SDS011;25639;53.634;9.880;2022-08-03T03:41:16;8.23;;;6.32;;
39958;SDS011;25639;53.634;9.880;2022-08-03T03:43:42;6.95;;;5.53;;
39958;SDS011;25639;53.634;9.880;2022-08-03T03:46:07;8.43;;;5.50;;
39958;SDS011;25639;53.634;9.880;2022-08-03T03:48:35;8.45;;;5.68;;
39958;SDS011;25639;53.634;9.880;2022-08-03T03:51:02;9.18;;;6.13;;
39958;SDS011;25639;53.634;9.880;2022-08-03T03:53:28;7.72;;;6.60;;
39958;SDS011;25639;53.634;9.880;2022-08-03T03:55:53;6.35;;;5.72;;
39958;SDS011;25639;53.634;9.880;2022-08-03T03:58:19;10.15;;;6.43;;
39958;SDS011;25639;53.634;9.880;2022-08-03T04:00:45;11.20;;;6.30;;
39958;SDS011;25639;53.634;9.880;2022-08-03T04:03:10;7.28;;;5.93;;
39958;SDS011;25639;53.634;9.880;2022-08-03T04:05:36;9.50;;;5.65;;
39958;SDS011;25639;53.634;9.880;2022-08-03T04:08:20;11.10;;;6.95;;
39958;SDS011;25639;53.634;9.880;2022-08-03T04:11:10;6.80;;;6.10;;
39958;SDS011;25639;53.634;9.880;2022-08-03T04:16:25;9.80;;;6.60;;
39958;SDS011;25639;53.634;9.880;2022-08-03T04:18:54;8.65;;;7.53;;
39958;SDS011;25639;53.634;9.880;2022-08-03T04:21:24;9.27;;;7.25;;
39958;SDS011;25639;53.634;9.880;2022-08-03T04:23:51;11.27;;;6.95;;
39958;SDS011;25639;53.634;9.880;2022-08-03T04:26:20;9.82;;;7.00;;
39958;SDS011;25639;53.634;9.880;2022-08-03T04:28:48;8.65;;;5.82;;
39958;SDS011;25639;53.634;9.880;2022-08-03T04:31:16;9.45;;;6.75;;
39958;SDS011;25639;53.634;9.880;2022-08-03T04:33:42;10.30;;;6.80;;
39958;SDS011;25639;53.634;9.880;2022-08-03T04:36:09;9.43;;;6.53;;
39958;SDS011;25639;53.634;9.880;2022-08-03T04:39:04;7.88;;;5.88;;
39958;SDS011;25639;53.634;9.880;2022-08-03T04:41:32;8.10;;;5.90;;
39958;SDS011;25639;53.634;9.880;2022-08-03T04:43:59;10.27;;;6.88;;
39958;SDS011;25639;53.634;9.880;2022-08-03T04:46:27;8.38;;;6.13;;
39958;SDS011;25639;53.634;9.880;2022-08-03T04:48:56;9.35;;;6.82;;
39958;SDS011;25639;53.634;9.880;2022-08-03T04:51:22;7.32;;;6.55;;
39958;SDS011;25639;53.634;9.880;2022-08-03T04:53:49;11.85;;;6.60;;
39958;SDS011;25639;53.634;9.880;2022-08-03T04:56:14;9.90;;;6.63;;
39958;SDS011;25639;53.634;9.880;2022-08-03T04:58:39;10.68;;;6.35;;
39958;SDS011;25639;53.634;9.880;2022-08-03T05:01:05;9.15;;;5.63;;
39958;SDS011;25639;53.634;9.880;2022-08-03T05:03:30;7.93;;;5.82;;
39958;SDS011;25639;53.634;9.880;2022-08-03T05:05:56;7.32;;;6.10;;
39958;SDS011;25639;53.634;9.880;2022-08-03T05:08:21;8.93;;;6.30;;
39958;SDS011;25639;53.634;9.880;2022-08-03T05:10:46;9.43;;;4.90;;
39958;SDS011;25639;53.634;9.880;2022-08-03T05:13:12;7.43;;;5.03;;
39958;SDS011;25639;53.634;9.880;2022-08-03T05:15:38;7.45;;;5.78;;
39958;SDS011;25639;53.634;9.880;2022-08-03T05:18:04;6.45;;;5.07;;
39958;SDS011;25639;53.634;9.880;2022-08-03T05:20:30;5.38;;;4.80;;
39958;SDS011;25639;53.634;9.880;2022-08-03T05:22:56;6.22;;;4.78;;
39958;SDS011;25639;53.634;9.880;2022-08-03T05:25:22;10.95;;;4.72;;
39958;SDS011;25639;53.634;9.880;2022-08-03T05:27:47;6.47;;;4.80;;
39958;SDS011;25639;53.634;9.880;2022-08-03T05:30:13;6.15;;;4.43;;
39958;SDS011;25639;53.634;9.880;2022-08-03T05:32:38;7.10;;;4.90;;
39958;SDS011;25639;53.634;9.880;2022-08-03T05:35:04;7.78;;;4.22;;
39958;SDS011;25639;53.634;9.880;2022-08-03T05:37:29;9.45;;;4.22;;
39958;SDS011;25639;53.634;9.880;2022-08-03T05:39:55;7.32;;;4.57;;
39958;SDS011;25639;53.634;9.880;2022-08-03T05:42:20;4.53;;;4.13;;
39958;SDS011;25639;53.634;9.880;2022-08-03T05:44:45;7.75;;;3.88;;
39958;SDS011;25639;53.634;9.880;2022-08-03T05:47:11;8.85;;;5.03;;
39958;SDS011;25639;53.634;9.880;2022-08-03T05:49:36;8.23;;;3.72;;
39958;SDS011;25639;53.634;9.880;2022-08-03T05:52:01;9.57;;;3.67;;
39958;SDS011;25639;53.634;9.880;2022-08-03T05:54:27;6.07;;;3.90;;
39958;SDS011;25639;53.634;9.880;2022-08-03T05:56:52;6.35;;;3.90;;
39958;SDS011;25639;53.634;9.880;2022-08-03T05:59:17;4.85;;;3.63;;
39958;SDS011;25639;53.634;9.880;2022-08-03T06:01:43;6.78;;;3.38;;
39958;SDS011;25639;53.634;9.880;2022-08-03T06:04:08;6.20;;;3.55;;
39958;SDS011;25639;53.634;9.880;2022-08-03T06:06:34;5.60;;;3.30;;
39958;SDS011;25639;53.634;9.880;2022-08-03T06:08:59;6.30;;;3.85;;
39958;SDS011;25639;53.634;9.880;2022-08-03T06:11:24;4.38;;;3.22;;
39958;SDS011;25639;53.634;9.880;2022-08-03T06:13:50;5.80;;;3.00;;
39958;SDS011;25639;53.634;9.880;2022-08-03T06:16:15;5.20;;;3.10;;
39958;SDS011;25639;53.634;9.880;2022-08-03T06:18:40;5.32;;;3.20;;
39958;SDS011;25639;53.634;9.880;2022-08-03T06:21:06;3.70;;;3.15;;
39958;SDS011;25639;53.634;9.880;2022-08-03T06:23:31;3.42;;;2.55;;
39958;SDS011;25639;53.634;9.880;2022-08-03T06:25:57;3.20;;;2.30;;
39958;SDS011;25639;53.634;9.880;2022-08-03T06:28:22;3.53;;;2.70;;
39958;SDS011;25639;53.634;9.880;2022-08-03T06:30:47;4.40;;;2.65;;
39958;SDS011;25639;53.634;9.880;2022-08-03T06:33:12;6.40;;;2.88;;
39958;SDS011;25639;53.634;9.880;2022-08-03T06:35:38;4.28;;;2.53;;
39958;SDS011;25639;53.634;9.880;2022-08-03T06:38:03;6.95;;;2.53;;
39958;SDS011;25639;53.634;9.880;2022-08-03T06:40:28;7.13;;;2.60;;
39958;SDS011;25639;53.634;9.880;2022-08-03T06:42:56;5.72;;;2.25;;
39958;SDS011;25639;53.634;9.880;2022-08-03T06:45:22;4.70;;;2.75;;
39958;SDS011;25639;53.634;9.880;2022-08-03T06:47:58;3.67;;;1.90;;
39958;SDS011;25639;53.634;9.880;2022-08-03T06:50:25;3.75;;;2.30;;
39958;SDS011;25639;53.634;9.880;2022-08-03T06:52:50;2.85;;;2.20;;
39958;SDS011;25639;53.634;9.880;2022-08-03T06:55:16;8.63;;;2.50;;
39958;SDS011;25639;53.634;9.880;2022-08-03T06:57:41;4.25;;;2.10;;
39958;SDS011;25639;53.634;9.880;2022-08-03T07:00:07;4.03;;;1.95;;
39958;SDS011;25639;53.634;9.880;2022-08-03T07:02:33;4.82;;;2.38;;
39958;SDS011;25639;53.634;9.880;2022-08-03T07:04:59;3.83;;;2.38;;
39958;SDS011;25639;53.634;9.880;2022-08-03T07:07:24;4.70;;;2.10;;
39958;SDS011;25639;53.634;9.880;2022-08-03T07:09:49;5.03;;;2.38;;
39958;SDS011;25639;53.634;9.880;2022-08-03T07:12:15;4.45;;;2.33;;
39958;SDS011;25639;53.634;9.880;2022-08-03T07:14:40;6.38;;;2.33;;
39958;SDS011;25639;53.634;9.880;2022-08-03T07:17:05;3.53;;;2.38;;
39958;SDS011;25639;53.634;9.880;2022-08-03T07:19:31;8.60;;;2.60;;
39958;SDS011;25639;53.634;9.880;2022-08-03T07:21:56;6.88;;;2.88;;
39958;SDS011;25639;53.634;9.880;2022-08-03T07:24:22;4.47;;;2.70;;
39958;SDS011;25639;53.634;9.880;2022-08-03T07:26:48;6.80;;;2.70;;
39958;SDS011;25639;53.634;9.880;2022-08-03T07:29:13;4.65;;;2.80;;
39958;SDS011;25639;53.634;9.880;2022-08-03T07:31:38;8.35;;;2.70;;
39958;SDS011;25639;53.634;9.880;2022-08-03T07:34:04;6.97;;;2.60;;
39958;SDS011;25639;53.634;9.880;2022-08-03T07:36:29;8.43;;;2.47;;
39958;SDS011;25639;53.634;9.880;2022-08-03T07:38:56;5.30;;;2.55;;
39958;SDS011;25639;53.634;9.880;2022-08-03T07:41:22;4.18;;;2.58;;
39958;SDS011;25639;53.634;9.880;2022-08-03T07:43:47;8.77;;;2.60;;
39958;SDS011;25639;53.634;9.880;2022-08-03T07:46:12;5.38;;;2.45;;
39958;SDS011;25639;53.634;9.880;2022-08-03T07:48:38;4.65;;;2.50;;
39958;SDS011;25639;53.634;9.880;2022-08-03T07:51:04;3.30;;;2.33;;
39958;SDS011;25639;53.634;9.880;2022-08-03T07:53:30;4.28;;;2.28;;
39958;SDS011;25639;53.634;9.880;2022-08-03T07:55:55;13.90;;;2.63;;
39958;SDS011;25639;53.634;9.880;2022-08-03T07:58:21;5.70;;;2.63;;
39958;SDS011;25639;53.634;9.880;2022-08-03T08:00:47;5.63;;;2.65;;
39958;SDS011;25639;53.634;9.880;2022-08-03T08:03:14;3.33;;;2.30;;
39958;SDS011;25639;53.634;9.880;2022-08-03T08:05:40;4.72;;;2.33;;
39958;SDS011;25639;53.634;9.880;2022-08-03T08:08:06;5.07;;;2.45;;
39958;SDS011;25639;53.634;9.880;2022-08-03T08:10:32;3.65;;;2.60;;
39958;SDS011;25639;53.634;9.880;2022-08-03T08:12:58;5.85;;;2.60;;
39958;SDS011;25639;53.634;9.880;2022-08-03T08:15:23;4.43;;;2.38;;
39958;SDS011;25639;53.634;9.880;2022-08-03T08:17:50;7.68;;;2.60;;
39958;SDS011;25639;53.634;9.880;2022-08-03T08:20:18;4.75;;;2.22;;
39958;SDS011;25639;53.634;9.880;2022-08-03T08:22:57;6.10;;;2.20;;
39958;SDS011;25639;53.634;9.880;2022-08-03T08:25:27;4.30;;;2.05;;
39958;SDS011;25639;53.634;9.880;2022-08-03T08:27:53;8.48;;;2.40;;
39958;SDS011;25639;53.634;9.880;2022-08-03T08:30:20;3.47;;;2.22;;
39958;SDS011;25639;53.634;9.880;2022-08-03T08:32:46;5.28;;;2.40;;
39958;SDS011;25639;53.634;9.880;2022-08-03T08:35:13;7.00;;;2.20;;
39958;SDS011;25639;53.634;9.880;2022-08-03T08:37:39;5.60;;;2.25;;
39958;SDS011;25639;53.634;9.880;2022-08-03T08:40:05;4.65;;;2.30;;
39958;SDS011;25639;53.634;9.880;2022-08-03T08:42:32;5.32;;;2.13;;
39958;SDS011;25639;53.634;9.880;2022-08-03T08:45:00;4.53;;;2.85;;
39958;SDS011;25639;53.634;9.880;2022-08-03T08:47:29;3.08;;;2.03;;
39958;SDS011;25639;53.634;9.880;2022-08-03T08:49:56;8.27;;;2.38;;
39958;SDS011;25639;53.634;9.880;2022-08-03T08:52:26;5.25;;;2.40;;
39958;SDS011;25639;53.634;9.880;2022-08-03T08:54:57;6.80;;;2.03;;
39958;SDS011;25639;53.634;9.880;2022-08-03T08:57:25;6.97;;;2.17;;
39958;SDS011;25639;53.634;9.880;2022-08-03T08:59:54;6.53;;;2.10;;
39958;SDS011;25639;53.634;9.880;2022-08-03T09:02:21;10.52;;;2.03;;
39958;SDS011;25639;53.634;9.880;2022-08-03T09:04:50;6.93;;;2.58;;
39958;SDS011;25639;53.634;9.880;2022-08-03T09:07:16;10.30;;;2.63;;
39958;SDS011;25639;53.634;9.880;2022-08-03T09:09:42;4.88;;;2.05;;
39958;SDS011;25639;53.634;9.880;2022-08-03T09:12:08;7.53;;;2.30;;
39958;SDS011;25639;53.634;9.880;2022-08-03T09:14:35;6.03;;;2.08;;
39958;SDS011;25639;53.634;9.880;2022-08-03T09:17:00;5.90;;;2.10;;
39958;SDS011;25639;53.634;9.880;2022-08-03T09:19:27;8.15;;;2.10;;
39958;SDS011;25639;53.634;9.880;2022-08-03T09:22:27;5.97;;;2.38;;
39958;SDS011;25639;53.634;9.880;2022-08-03T09:27:20;4.82;;;1.98;;
39958;SDS011;25639;53.634;9.880;2022-08-03T09:29:49;5.15;;;1.95;;
39958;SDS011;25639;53.634;9.880;2022-08-03T09:32:18;6.45;;;2.08;;
39958;SDS011;25639;53.634;9.880;2022-08-03T09:34:48;5.03;;;2.22;;
39958;SDS011;25639;53.634;9.880;2022-08-03T09:37:16;6.50;;;2.10;;
39958;SDS011;25639;53.634;9.880;2022-08-03T09:39:43;5.07;;;1.60;;
39958;SDS011;25639;53.634;9.880;2022-08-03T09:42:16;5.65;;;1.83;;
39958;SDS011;25639;53.634;9.880;2022-08-03T09:44:43;2.55;;;1.70;;
39958;SDS011;25639;53.634;9.880;2022-08-03T09:47:12;8.80;;;1.95;;
39958;SDS011;25639;53.634;9.880;2022-08-03T09:49:38;4.07;;;1.70;;
39958;SDS011;25639;53.634;9.880;2022-08-03T09:52:12;5.40;;;2.03;;
39958;SDS011;25639;53.634;9.880;2022-08-03T09:54:43;6.43;;;1.95;;
39958;SDS011;25639;53.634;9.880;2022-08-03T09:57:22;4.57;;;1.73;;
39958;SDS011;25639;53.634;9.880;2022-08-03T09:59:49;10.20;;;2.08;;
39958;SDS011;25639;53.634;9.880;2022-08-03T10:02:19;5.78;;;2.30;;
39958;SDS011;25639;53.634;9.880;2022-08-03T10:04:49;7.22;;;2.17;;
39958;SDS011;25639;53.634;9.880;2022-08-03T10:07:16;6.35;;;2.00;;
39958;SDS011;25639;53.634;9.880;2022-08-03T10:09:52;4.85;;;1.80;;
39958;SDS011;25639;53.634;9.880;2022-08-03T10:12:22;3.72;;;1.58;;
39958;SDS011;25639;53.634;9.880;2022-08-03T10:14:48;7.18;;;2.03;;
39958;SDS011;25639;53.634;9.880;2022-08-03T10:17:14;3.55;;;1.58;;
39958;SDS011;25639;53.634;9.880;2022-08-03T10:19:39;4.72;;;1.60;;
39958;SDS011;25639;53.634;9.880;2022-08-03T10:24:43;5.40;;;1.83;;
39958;SDS011;25639;53.634;9.880;2022-08-03T10:27:13;3.97;;;1.70;;
39958;SDS011;25639;53.634;9.880;2022-08-03T10:29:42;5.28;;;1.63;;
39958;SDS011;25639;53.634;9.880;2022-08-03T10:32:12;6.05;;;1.63;;
39958;SDS011;25639;53.634;9.880;2022-08-03T10:34:45;3.35;;;1.70;;
39958;SDS011;25639;53.634;9.880;2022-08-03T10:37:14;9.85;;;1.90;;
39958;SDS011;25639;53.634;9.880;2022-08-03T10:39:41;7.10;;;2.03;;
39958;SDS011;25639;53.634;9.880;2022-08-03T10:42:18;3.50;;;1.65;;
39958;SDS011;25639;53.634;9.880;2022-08-03T10:44:52;6.43;;;1.73;;
39958;SDS011;25639;53.634;9.880;2022-08-03T10:47:24;4.30;;;1.63;;
39958;SDS011;25639;53.634;9.880;2022-08-03T10:49:50;6.97;;;1.58;;
39958;SDS011;25639;53.634;9.880;2022-08-03T10:52:16;7.85;;;2.08;;
39958;SDS011;25639;53.634;9.880;2022-08-03T10:54:42;5.50;;;1.80;;
39958;SDS011;25639;53.634;9.880;2022-08-03T10:57:44;12.68;;;2.50;;
39958;SDS011;25639;53.634;9.880;2022-08-03T11:00:20;7.68;;;1.95;;
39958;SDS011;25639;53.634;9.880;2022-08-03T11:05:45;4.30;;;1.45;;
39958;SDS011;25639;53.634;9.880;2022-08-03T11:13:16;3.70;;;1.48;;
39958;SDS011;25639;53.634;9.880;2022-08-03T11:15:49;8.40;;;1.88;;
39958;SDS011;25639;53.634;9.880;2022-08-03T11:18:16;7.82;;;1.90;;
39958;SDS011;25639;53.634;9.880;2022-08-03T11:20:43;5.65;;;2.10;;
39958;SDS011;25639;53.634;9.880;2022-08-03T11:23:10;5.35;;;1.73;;
39958;SDS011;25639;53.634;9.880;2022-08-03T11:28:36;7.72;;;2.08;;
39958;SDS011;25639;53.634;9.880;2022-08-03T11:34:07;4.63;;;1.73;;
39958;SDS011;25639;53.634;9.880;2022-08-03T11:39:40;7.15;;;1.63;;
39958;SDS011;25639;53.634;9.880;2022-08-03T11:44:57;7.43;;;1.73;;
39958;SDS011;25639;53.634;9.880;2022-08-03T11:47:24;7.10;;;1.60;;
39958;SDS011;25639;53.634;9.880;2022-08-03T11:49:53;4.15;;;1.60;;
39958;SDS011;25639;53.634;9.880;2022-08-03T11:52:21;6.80;;;2.15;;
39958;SDS011;25639;53.634;9.880;2022-08-03T11:54:49;8.50;;;1.80;;
39958;SDS011;25639;53.634;9.880;2022-08-03T11:57:27;6.60;;;1.63;;
39958;SDS011;25639;53.634;9.880;2022-08-03T11:59:54;9.70;;;1.67;;
39958;SDS011;25639;53.634;9.880;2022-08-03T12:02:19;12.63;;;2.63;;
39958;SDS011;25639;53.634;9.880;2022-08-03T12:04:54;5.82;;;1.50;;
39958;SDS011;25639;53.634;9.880;2022-08-03T12:07:25;8.48;;;1.95;;
39958;SDS011;25639;53.634;9.880;2022-08-03T12:12:37;3.20;;;1.50;;
39958;SDS011;25639;53.634;9.880;2022-08-03T12:15:03;7.28;;;1.67;;
39958;SDS011;25639;53.634;9.880;2022-08-03T12:17:33;7.47;;;1.70;;
39958;SDS011;25639;53.634;9.880;2022-08-03T12:20:03;4.65;;;1.50;;
39958;SDS011;25639;53.634;9.880;2022-08-03T12:22:33;5.05;;;1.52;;
39958;SDS011;25639;53.634;9.880;2022-08-03T12:25:01;8.70;;;2.20;;
39958;SDS011;25639;53.634;9.880;2022-08-03T12:27:27;12.55;;;1.90;;
39958;SDS011;25639;53.634;9.880;2022-08-03T12:29:54;7.88;;;1.70;;
39958;SDS011;25639;53.634;9.880;2022-08-03T12:32:20;8.10;;;1.98;;
39958;SDS011;25639;53.634;9.880;2022-08-03T12:34:46;8.65;;;2.00;;
39958;SDS011;25639;53.634;9.880;2022-08-03T12:37:13;6.40;;;1.60;;
39958;SDS011;25639;53.634;9.880;2022-08-03T12:39:39;6.25;;;2.05;;
39958;SDS011;25639;53.634;9.880;2022-08-03T12:42:04;7.97;;;1.80;;
39958;SDS011;25639;53.634;9.880;2022-08-03T12:44:30;8.90;;;1.90;;
39958;SDS011;25639;53.634;9.880;2022-08-03T12:46:57;8.18;;;1.85;;
39958;SDS011;25639;53.634;9.880;2022-08-03T12:49:23;4.60;;;1.40;;
39958;SDS011;25639;53.634;9.880;2022-08-03T12:54:15;5.43;;;1.58;;
39958;SDS011;25639;53.634;9.880;2022-08-03T12:59:33;7.70;;;1.60;;
39958;SDS011;25639;53.634;9.880;2022-08-03T13:02:16;5.32;;;1.63;;
39958;SDS011;25639;53.634;9.880;2022-08-03T13:04:43;6.95;;;2.00;;
39958;SDS011;25639;53.634;9.880;2022-08-03T13:07:10;9.18;;;1.90;;
39958;SDS011;25639;53.634;9.880;2022-08-03T13:09:40;5.05;;;2.00;;
39958;SDS011;25639;53.634;9.880;2022-08-03T13:12:13;5.90;;;2.00;;
39958;SDS011;25639;53.634;9.880;2022-08-03T13:14:44;6.65;;;1.65;;
39958;SDS011;25639;53.634;9.880;2022-08-03T13:17:10;7.32;;;1.65;;
39958;SDS011;25639;53.634;9.880;2022-08-03T13:19:36;10.32;;;2.10;;
39958;SDS011;25639;53.634;9.880;2022-08-03T13:22:19;10.68;;;1.90;;
39958;SDS011;25639;53.634;9.880;2022-08-03T13:24:47;6.03;;;2.03;;
39958;SDS011;25639;53.634;9.880;2022-08-03T13:27:14;8.43;;;1.75;;
39958;SDS011;25639;53.634;9.880;2022-08-03T13:29:40;5.07;;;1.80;;
39958;SDS011;25639;53.634;9.880;2022-08-03T13:32:10;6.13;;;1.95;;
39958;SDS011;25639;53.634;9.880;2022-08-03T13:34:35;9.40;;;2.10;;
39958;SDS011;25639;53.634;9.880;2022-08-03T13:37:01;6.57;;;1.80;;
39958;SDS011;25639;53.634;9.880;2022-08-03T13:39:27;9.70;;;1.67;;
39958;SDS011;25639;53.634;9.880;2022-08-03T13:41:52;8.23;;;2.10;;
39958;SDS011;25639;53.634;9.880;2022-08-03T13:44:18;5.03;;;1.48;;
39958;SDS011;25639;53.634;9.880;2022-08-03T13:46:44;4.25;;;1.60;;
39958;SDS011;25639;53.634;9.880;2022-08-03T13:49:09;9.20;;;1.70;;
39958;SDS011;25639;53.634;9.880;2022-08-03T13:51:35;4.25;;;1.65;;
39958;SDS011;25639;53.634;9.880;2022-08-03T13:54:00;8.55;;;2.08;;
39958;SDS011;25639;53.634;9.880;2022-08-03T13:56:25;5.63;;;1.58;;
39958;SDS011;25639;53.634;9.880;2022-08-03T13:58:52;7.75;;;1.88;;
39958;SDS011;25639;53.634;9.880;2022-08-03T14:01:17;5.55;;;1.70;;
39958;SDS011;25639;53.634;9.880;2022-08-03T14:03:43;9.70;;;2.05;;
39958;SDS011;25639;53.634;9.880;2022-08-03T14:06:08;6.78;;;1.70;;
39958;SDS011;25639;53.634;9.880;2022-08-03T14:08:33;10.18;;;2.15;;
39958;SDS011;25639;53.634;9.880;2022-08-03T14:10:59;10.52;;;1.75;;
39958;SDS011;25639;53.634;9.880;2022-08-03T14:13:24;6.70;;;1.55;;
39958;SDS011;25639;53.634;9.880;2022-08-03T14:15:49;7.85;;;1.90;;
39958;SDS011;25639;53.634;9.880;2022-08-03T14:18:16;7.22;;;1.73;;
39958;SDS011;25639;53.634;9.880;2022-08-03T14:20:42;4.03;;;1.52;;
39958;SDS011;25639;53.634;9.880;2022-08-03T14:23:08;5.03;;;1.60;;
39958;SDS011;25639;53.634;9.880;2022-08-03T14:25:34;4.10;;;1.60;;
39958;SDS011;25639;53.634;9.880;2022-08-03T14:27:59;4.07;;;1.70;;
39958;SDS011;25639;53.634;9.880;2022-08-03T14:30:24;4.93;;;1.58;;
39958;SDS011;25639;53.634;9.880;2022-08-03T14:32:50;5.68;;;1.95;;
39958;SDS011;25639;53.634;9.880;2022-08-03T14:35:15;4.93;;;1.65;;
39958;SDS011;25639;53.634;9.880;2022-08-03T14:37:40;7.88;;;2.13;;
39958;SDS011;25639;53.634;9.880;2022-08-03T14:40:05;6.63;;;1.85;;
39958;SDS011;25639;53.634;9.880;2022-08-03T14:42:31;5.35;;;2.22;;
39958;SDS011;25639;53.634;9.880;2022-08-03T14:44:57;5.03;;;1.40;;
39958;SDS011;25639;53.634;9.880;2022-08-03T14:47:22;5.80;;;1.73;;
39958;SDS011;25639;53.634;9.880;2022-08-03T14:49:47;7.55;;;1.73;;
39958;SDS011;25639;53.634;9.880;2022-08-03T14:52:13;9.88;;;1.85;;
39958;SDS011;25639;53.634;9.880;2022-08-03T14:54:38;6.15;;;1.58;;
39958;SDS011;25639;53.634;9.880;2022-08-03T14:57:03;3.80;;;1.53;;
39958;SDS011;25639;53.634;9.880;2022-08-03T14:59:28;7.47;;;2.17;;
39958;SDS011;25639;53.634;9.880;2022-08-03T15:01:54;5.70;;;1.52;;
39958;SDS011;25639;53.634;9.880;2022-08-03T15:04:19;6.20;;;1.55;;
39958;SDS011;25639;53.634;9.880;2022-08-03T15:06:45;3.83;;;1.60;;
39958;SDS011;25639;53.634;9.880;2022-08-03T15:09:10;7.35;;;1.63;;
39958;SDS011;25639;53.634;9.880;2022-08-03T15:11:35;8.93;;;1.95;;
39958;SDS011;25639;53.634;9.880;2022-08-03T15:14:01;7.07;;;2.10;;
39958;SDS011;25639;53.634;9.880;2022-08-03T15:16:26;4.78;;;1.75;;
39958;SDS011;25639;53.634;9.880;2022-08-03T15:18:52;6.57;;;1.67;;
39958;SDS011;25639;53.634;9.880;2022-08-03T15:21:17;5.63;;;1.75;;
39958;SDS011;25639;53.634;9.880;2022-08-03T15:23:43;7.43;;;1.60;;
39958;SDS011;25639;53.634;9.880;2022-08-03T15:26:08;5.35;;;1.88;;
39958;SDS011;25639;53.634;9.880;2022-08-03T15:28:33;9.30;;;2.03;;
39958;SDS011;25639;53.634;9.880;2022-08-03T15:30:59;7.68;;;1.85;;
39958;SDS011;25639;53.634;9.880;2022-08-03T15:33:24;6.03;;;2.30;;
39958;SDS011;25639;53.634;9.880;2022-08-03T15:35:50;5.70;;;2.10;;
39958;SDS011;25639;53.634;9.880;2022-08-03T15:38:16;7.25;;;2.28;;